createdAt,value
2022-10-13T00:00:49.225Z,25.83
2022-10-13T00:03:21.722Z,24.42
2022-10-13T00:05:53.127Z,27.23
2022-10-13T00:08:26.250Z,26.17
2022-10-13T00:10:56.028Z,27.38
2022-10-13T00:13:25.593Z,23.08
2022-10-13T00:15:55.352Z,24.92
2022-10-13T00:18:27.618Z,23.52
2022-10-13T00:20:57.154Z,26.65
2022-10-13T00:23:26.927Z,25.90
2022-10-13T00:25:56.443Z,25.83
2022-10-13T00:28:26.104Z,24.23
2022-10-13T00:30:55.660Z,28.23
2022-10-13T00:33:28.322Z,28.42
2022-10-13T00:35:57.981Z,30.67
2022-10-13T00:38:27.548Z,22.77
2022-10-13T00:40:59.220Z,27.90
2022-10-13T00:43:31.098Z,24.15
2022-10-13T00:46:00.662Z,24.85
2022-10-13T00:48:33.826Z,29.45
2022-10-13T00:51:03.658Z,26.40
2022-10-13T00:53:37.154Z,22.90
2022-10-13T00:56:08.662Z,28.05
2022-10-13T00:58:40.504Z,23.83
2022-10-13T01:01:11.244Z,23.88
2022-10-13T01:03:44.296Z,26.08
2022-10-13T01:06:17.846Z,26.52
2022-10-13T01:08:50.664Z,21.40
2022-10-13T01:11:41.279Z,25.25
2022-10-13T01:14:20.651Z,27.50
2022-10-13T01:17:00.709Z,25.67
2022-10-13T01:20:06.968Z,22.45
2022-10-13T01:22:49.901Z,23.02
2022-10-13T01:25:36.972Z,29.63
2022-10-13T01:28:39.020Z,23.33
2022-10-13T01:31:22.111Z,21.52
2022-10-13T01:34:00.491Z,27.98
2022-10-13T01:36:36.030Z,24.98
2022-10-13T01:39:11.834Z,30.52
2022-10-13T01:41:44.935Z,25.00
2022-10-13T01:44:19.642Z,30.17
2022-10-13T01:46:54.640Z,28.17
2022-10-13T01:49:28.914Z,28.83
2022-10-13T01:52:04.793Z,23.67
2022-10-13T01:54:35.265Z,25.67
2022-10-13T01:57:05.220Z,26.85
2022-10-13T01:59:38.651Z,26.52
2022-10-13T02:02:19.872Z,26.15
2022-10-13T02:04:59.427Z,28.13
2022-10-13T02:07:35.112Z,30.77
2022-10-13T02:10:10.411Z,29.17
2022-10-13T02:12:45.465Z,29.73
2022-10-13T02:15:18.948Z,28.13
2022-10-13T02:17:51.229Z,28.10
2022-10-13T02:20:23.198Z,29.58
2022-10-13T02:22:58.755Z,28.25
2022-10-13T02:25:28.966Z,31.33
2022-10-13T02:28:01.080Z,28.90
2022-10-13T02:30:33.332Z,34.45
2022-10-13T02:33:06.052Z,30.90
2022-10-13T02:35:35.986Z,28.70
2022-10-13T02:38:05.770Z,26.95
2022-10-13T02:40:35.648Z,28.00
2022-10-13T02:43:05.386Z,28.45
2022-10-13T02:45:35.013Z,29.00
2022-10-13T02:48:07.586Z,27.52
2022-10-13T02:50:37.643Z,29.73
2022-10-13T02:53:07.218Z,26.00
2022-10-13T02:55:36.782Z,31.48
2022-10-13T02:58:06.401Z,27.35
2022-10-13T03:00:36.063Z,28.40
2022-10-13T03:03:08.746Z,28.35
2022-10-13T03:05:38.299Z,29.08
2022-10-13T03:08:08.462Z,25.83
2022-10-13T03:10:38.078Z,28.98
2022-10-13T03:13:07.662Z,27.85
2022-10-13T03:15:37.209Z,26.00
2022-10-13T03:18:09.480Z,27.10
2022-10-13T03:20:39.014Z,33.00
2022-10-13T03:23:09.121Z,28.55
2022-10-13T03:25:39.145Z,30.17
2022-10-13T03:28:08.686Z,32.58
2022-10-13T03:30:38.306Z,29.98
2022-10-13T03:33:10.616Z,27.98
2022-10-13T03:35:40.328Z,21.85
2022-10-13T03:38:10.580Z,26.00
2022-10-13T03:40:40.551Z,27.92
2022-10-13T03:43:10.746Z,30.02
2022-10-13T03:45:40.463Z,26.50
2022-10-13T03:48:12.592Z,26.38
2022-10-13T03:50:42.229Z,28.50
2022-10-13T03:53:12.629Z,28.67
2022-10-13T03:55:42.293Z,27.38
2022-10-13T03:58:11.919Z,29.17
2022-10-13T04:00:41.995Z,29.33
2022-10-13T04:03:14.933Z,35.85
2022-10-13T04:05:45.077Z,32.13
2022-10-13T04:08:15.242Z,32.15
2022-10-13T04:10:45.126Z,31.17
2022-10-13T04:13:14.833Z,31.00
2022-10-13T04:15:44.792Z,32.88
2022-10-13T04:18:17.755Z,36.45
2022-10-13T04:20:47.416Z,28.60
2022-10-13T04:23:17.330Z,29.65
2022-10-13T04:25:46.945Z,33.15
2022-10-13T04:28:16.590Z,31.40
2022-10-13T04:30:49.442Z,28.58
2022-10-13T04:33:21.937Z,35.95
2022-10-13T04:35:52.013Z,27.42
2022-10-13T04:38:21.569Z,27.38
2022-10-13T04:40:51.244Z,29.33
2022-10-13T04:43:20.928Z,31.90
2022-10-13T04:45:50.462Z,31.00
2022-10-13T04:48:22.668Z,30.60
2022-10-13T04:51:01.676Z,26.08
2022-10-13T04:53:31.681Z,31.10
2022-10-13T04:56:04.454Z,29.80
2022-10-13T04:58:35.585Z,28.42
2022-10-13T05:01:05.663Z,29.70
2022-10-13T05:03:38.273Z,32.30
2022-10-13T05:06:08.487Z,29.60
2022-10-13T05:08:38.151Z,26.65
2022-10-13T05:11:08.127Z,33.50
2022-10-13T05:13:38.611Z,32.88
2022-10-13T05:16:13.062Z,30.05
2022-10-13T05:18:45.654Z,31.33
2022-10-13T05:21:17.568Z,30.67
2022-10-13T05:23:48.137Z,29.67
2022-10-13T05:26:19.355Z,31.38
2022-10-13T05:28:49.354Z,29.63
2022-10-13T05:31:21.490Z,35.55
2022-10-13T05:33:54.794Z,28.38
2022-10-13T05:36:26.242Z,35.05
2022-10-13T05:38:56.878Z,29.98
2022-10-13T05:41:28.093Z,35.65
2022-10-13T05:44:01.672Z,30.30
2022-10-13T05:46:31.321Z,28.88
2022-10-13T05:49:03.787Z,27.20
2022-10-13T05:51:37.340Z,28.13
2022-10-13T05:54:11.553Z,33.20
2022-10-13T05:56:45.097Z,25.17
2022-10-13T05:59:21.352Z,26.92
2022-10-13T06:01:54.030Z,26.67
2022-10-13T06:04:33.130Z,27.45
2022-10-13T06:07:03.021Z,27.83
2022-10-13T06:09:38.004Z,26.42
2022-10-13T06:12:08.002Z,30.95
2022-10-13T06:14:37.987Z,29.25
2022-10-13T06:17:07.609Z,36.05
2022-10-13T06:19:40.360Z,29.77
2022-10-13T06:22:10.429Z,30.52
2022-10-13T06:24:40.720Z,35.85
2022-10-13T06:27:10.406Z,32.30
2022-10-13T06:29:40.384Z,30.80
2022-10-13T06:32:10.598Z,27.50
2022-10-13T06:34:42.691Z,31.45
2022-10-13T06:37:12.506Z,28.60
2022-10-13T06:39:42.174Z,37.17
2022-10-13T06:42:15.043Z,37.22
2022-10-13T06:44:45.039Z,32.97
2022-10-13T06:47:14.962Z,36.83
2022-10-13T06:49:47.582Z,33.63
2022-10-13T06:52:17.414Z,40.90
2022-10-13T06:54:47.205Z,38.47
2022-10-13T06:57:16.866Z,38.10
2022-10-13T06:59:46.795Z,36.75
2022-10-13T07:02:16.427Z,37.85
2022-10-13T07:04:49.413Z,38.83
2022-10-13T07:07:19.533Z,41.35
2022-10-13T07:09:49.536Z,38.13
2022-10-13T07:12:19.421Z,33.33
2022-10-13T07:14:49.250Z,35.03
2022-10-13T07:17:19.060Z,41.75
2022-10-13T07:19:54.598Z,28.50
2022-10-13T07:22:26.515Z,36.05
2022-10-13T07:24:56.218Z,28.75
2022-10-13T07:27:26.112Z,28.33
2022-10-13T07:29:55.843Z,26.20
2022-10-13T07:32:25.430Z,25.38
2022-10-13T07:34:58.147Z,26.92
2022-10-13T07:37:27.727Z,29.75
2022-10-13T07:39:58.960Z,25.00
2022-10-13T07:42:28.576Z,30.20
2022-10-13T07:44:58.217Z,26.63
2022-10-13T07:47:27.930Z,28.25
2022-10-13T07:50:00.389Z,29.80
2022-10-13T07:52:30.100Z,30.75
2022-10-13T07:54:59.669Z,35.42
2022-10-13T07:57:30.034Z,32.60
2022-10-13T07:59:59.745Z,35.00
2022-10-13T08:02:30.424Z,28.58
2022-10-13T08:05:02.532Z,30.42
2022-10-13T08:07:32.305Z,31.50
2022-10-13T08:10:01.904Z,29.20
2022-10-13T08:12:31.602Z,36.10
2022-10-13T08:15:06.225Z,32.13
2022-10-13T08:17:37.037Z,33.58
2022-10-13T08:20:10.892Z,31.40
2022-10-13T08:22:40.576Z,24.45
2022-10-13T08:25:11.176Z,30.00
2022-10-13T08:27:51.071Z,27.33
2022-10-13T08:30:22.348Z,28.35
2022-10-13T08:32:52.159Z,26.75
2022-10-13T08:35:24.408Z,29.63
2022-10-13T08:37:54.178Z,25.27
2022-10-13T08:40:25.562Z,27.60
2022-10-13T08:42:59.485Z,33.33
2022-10-13T08:45:41.498Z,29.70
2022-10-13T08:48:17.037Z,25.65
2022-10-13T08:50:53.210Z,26.45
2022-10-13T08:53:30.905Z,30.73
2022-10-13T08:56:03.780Z,26.50
2022-10-13T08:58:36.217Z,31.67
2022-10-13T09:01:15.978Z,36.28
2022-10-13T09:03:56.412Z,35.75
2022-10-13T09:06:31.925Z,38.80
2022-10-13T09:09:03.301Z,38.53
2022-10-13T09:11:35.143Z,31.52
2022-10-13T09:14:08.094Z,36.95
2022-10-13T09:16:39.875Z,41.08
2022-10-13T09:19:27.444Z,37.22
2022-10-13T09:22:01.746Z,41.75
2022-10-13T09:24:31.611Z,37.47
2022-10-13T09:27:14.482Z,38.28
2022-10-13T09:29:45.530Z,31.95
2022-10-13T09:32:21.828Z,36.70
2022-10-13T09:34:52.928Z,33.50
2022-10-13T09:37:28.231Z,34.00
2022-10-13T09:40:15.393Z,36.42
2022-10-13T09:42:45.666Z,32.20
2022-10-13T09:45:21.418Z,29.60
2022-10-13T09:47:57.798Z,26.92
2022-10-13T09:50:29.915Z,31.02
2022-10-13T09:53:24.607Z,28.85
2022-10-13T09:56:18.061Z,30.77
2022-10-13T09:58:53.422Z,29.88
2022-10-13T10:01:28.231Z,27.73
2022-10-13T10:03:58.220Z,29.65
2022-10-13T10:06:28.153Z,28.55
2022-10-13T10:09:06.172Z,29.90
2022-10-13T10:11:41.224Z,30.15
2022-10-13T10:14:20.205Z,29.25
2022-10-13T10:16:56.721Z,29.08
2022-10-13T10:19:32.320Z,27.52
2022-10-13T10:22:11.306Z,22.75
2022-10-13T10:24:49.408Z,21.83
2022-10-13T10:27:24.555Z,26.17
2022-10-13T10:29:59.872Z,24.23
2022-10-13T10:32:33.626Z,25.40
2022-10-13T10:35:07.075Z,23.48
2022-10-13T10:37:51.123Z,23.83
2022-10-13T10:40:35.375Z,22.05
2022-10-13T10:43:33.654Z,20.90
2022-10-13T10:46:04.040Z,23.13
2022-10-13T10:48:38.909Z,22.85
2022-10-13T10:51:10.546Z,22.58
2022-10-13T10:53:48.658Z,23.98
2022-10-13T10:56:28.194Z,23.08
2022-10-13T10:59:08.485Z,24.75
2022-10-13T11:01:45.462Z,26.17
2022-10-13T11:04:39.791Z,20.35
2022-10-13T11:10:05.003Z,20.90
2022-10-13T11:13:12.982Z,18.00
2022-10-13T11:15:47.178Z,21.05
2022-10-13T11:18:46.848Z,21.88
2022-10-13T11:21:16.455Z,28.98
2022-10-13T11:23:50.866Z,22.17
2022-10-13T11:26:45.491Z,21.77
2022-10-13T11:29:58.051Z,23.45
2022-10-13T11:32:55.542Z,18.83
2022-10-13T11:35:31.211Z,21.35
2022-10-13T11:38:18.491Z,25.85
2022-10-13T11:41:08.429Z,22.40
2022-10-13T11:43:49.082Z,23.15
2022-10-13T11:46:28.183Z,20.70
2022-10-13T11:49:22.540Z,25.20
2022-10-13T11:52:09.822Z,26.10
2022-10-13T11:54:44.340Z,21.00
2022-10-13T11:57:22.774Z,23.10
2022-10-13T11:59:55.817Z,21.42
2022-10-13T12:02:29.650Z,28.05
2022-10-13T12:05:07.305Z,30.25
2022-10-13T12:07:39.618Z,23.52
2022-10-13T12:10:19.355Z,27.67
2022-10-13T12:12:51.401Z,25.60
2022-10-13T12:15:37.077Z,27.50
2022-10-13T12:18:23.570Z,22.25
2022-10-13T12:20:57.505Z,24.50
2022-10-13T12:23:28.244Z,26.48
2022-10-13T12:26:02.434Z,25.33
2022-10-13T12:28:33.894Z,26.98
2022-10-13T12:31:03.965Z,27.85
2022-10-13T12:33:38.930Z,27.35
2022-10-13T12:36:16.859Z,26.42
2022-10-13T12:38:51.466Z,25.63
2022-10-13T12:41:25.532Z,27.60
2022-10-13T12:43:56.065Z,25.30
2022-10-13T12:46:39.401Z,25.73
2022-10-13T12:49:17.530Z,26.15
2022-10-13T12:51:51.069Z,29.80
2022-10-13T12:54:25.266Z,29.67
2022-10-13T12:56:58.819Z,27.58
2022-10-13T12:59:31.024Z,33.90
2022-10-13T13:02:03.705Z,28.70
2022-10-13T13:04:46.496Z,27.75
2022-10-13T13:07:31.788Z,30.60
2022-10-13T13:10:20.402Z,27.90
2022-10-13T13:12:51.781Z,29.50
2022-10-13T13:15:34.773Z,29.73
2022-10-13T13:18:27.524Z,30.10
2022-10-13T13:21:02.025Z,28.80
2022-10-13T13:23:34.858Z,33.00
2022-10-13T13:26:06.406Z,30.10
2022-10-13T13:28:36.381Z,28.77
2022-10-13T13:31:06.187Z,28.30
2022-10-13T13:33:35.726Z,28.52
2022-10-13T13:36:13.001Z,28.50
2022-10-13T13:38:42.641Z,26.60
2022-10-13T13:41:13.061Z,24.92
2022-10-13T13:43:43.374Z,25.98
2022-10-13T13:46:18.914Z,22.83
2022-10-13T13:48:48.869Z,22.58
2022-10-13T13:51:21.437Z,24.90
2022-10-13T13:53:51.064Z,22.80
2022-10-13T13:56:23.932Z,19.45
2022-10-13T13:58:53.858Z,21.10
2022-10-13T14:01:23.836Z,19.15
2022-10-13T14:03:53.368Z,16.60
2022-10-13T14:06:25.747Z,11.75
2022-10-13T14:08:55.243Z,8.90
2022-10-13T14:11:25.391Z,6.13
2022-10-13T14:13:58.009Z,7.07
2022-10-13T14:16:27.620Z,6.63
2022-10-13T14:18:59.056Z,7.13
2022-10-13T14:21:31.519Z,6.35
2022-10-13T14:24:01.526Z,8.35
2022-10-13T14:26:31.116Z,4.97
2022-10-13T14:29:00.727Z,3.17
2022-10-13T14:31:30.702Z,5.85
2022-10-13T14:34:00.542Z,4.18
2022-10-13T14:36:32.704Z,4.60
2022-10-13T14:39:02.370Z,3.58
2022-10-13T14:41:32.021Z,3.53
2022-10-13T14:44:01.648Z,3.58
2022-10-13T14:46:31.224Z,2.25
2022-10-13T14:49:00.849Z,3.08
2022-10-13T14:51:34.297Z,4.72
2022-10-13T14:54:04.974Z,4.15
2022-10-13T14:56:34.734Z,4.85
2022-10-13T14:59:06.199Z,4.65
2022-10-13T15:01:36.232Z,4.43
2022-10-13T15:04:06.436Z,4.72
2022-10-13T15:06:39.907Z,2.60
2022-10-13T15:09:10.260Z,3.72
2022-10-13T15:11:40.046Z,3.28
2022-10-13T15:14:09.911Z,5.32
2022-10-13T15:16:39.772Z,2.65
2022-10-13T15:19:09.317Z,4.50
2022-10-13T15:21:41.528Z,4.40
2022-10-13T15:24:13.439Z,3.90
2022-10-13T15:26:42.985Z,4.68
2022-10-13T15:29:12.658Z,4.35
2022-10-13T15:31:42.211Z,4.65
2022-10-13T15:34:11.851Z,2.53
2022-10-13T15:36:44.612Z,4.72
2022-10-13T15:39:14.429Z,3.60
2022-10-13T15:41:44.572Z,6.03
2022-10-13T15:44:14.207Z,6.78
2022-10-13T15:46:59.405Z,6.30
2022-10-13T15:49:33.710Z,3.70
2022-10-13T15:52:06.209Z,7.63
2022-10-13T15:54:36.060Z,5.95
2022-10-13T15:57:05.711Z,7.35
2022-10-13T15:59:35.267Z,6.35
2022-10-13T16:02:04.968Z,4.63
2022-10-13T16:04:37.535Z,7.03
2022-10-13T16:07:09.978Z,4.97
2022-10-13T16:09:39.712Z,2.97
2022-10-13T16:12:10.151Z,5.25
2022-10-13T16:14:39.890Z,6.97
2022-10-13T16:17:09.835Z,4.47
2022-10-13T16:19:39.417Z,6.20
2022-10-13T16:22:11.607Z,7.03
2022-10-13T16:24:41.367Z,11.20
2022-10-13T16:27:11.013Z,9.60
2022-10-13T16:29:40.709Z,5.68
2022-10-13T16:32:10.354Z,6.07
2022-10-13T16:34:39.879Z,7.07
2022-10-13T16:37:12.069Z,9.43
2022-10-13T16:39:44.544Z,6.63
2022-10-13T16:42:16.153Z,4.07
2022-10-13T16:44:45.709Z,7.75
2022-10-13T16:47:18.385Z,8.75
2022-10-13T16:49:49.729Z,7.47
2022-10-13T16:52:21.909Z,6.15
2022-10-13T16:54:51.456Z,5.38
2022-10-13T16:57:21.268Z,5.40
2022-10-13T16:59:51.073Z,4.97
2022-10-13T17:02:20.893Z,9.45
2022-10-13T17:04:50.442Z,13.55
2022-10-13T17:07:22.956Z,11.80
2022-10-13T17:09:52.913Z,9.23
2022-10-13T17:12:22.658Z,7.63
2022-10-13T17:14:52.318Z,7.95
2022-10-13T17:17:22.204Z,8.50
2022-10-13T17:19:52.298Z,5.90
2022-10-13T17:22:24.699Z,6.43
2022-10-13T17:24:54.456Z,7.82
2022-10-13T17:27:24.157Z,6.63
2022-10-13T17:29:55.818Z,8.07
2022-10-13T17:32:25.870Z,7.82
2022-10-13T17:34:55.578Z,8.32
2022-10-13T17:37:27.888Z,10.05
2022-10-13T17:39:57.515Z,9.60
2022-10-13T17:42:27.127Z,9.27
2022-10-13T17:44:56.674Z,10.93
2022-10-13T17:47:26.484Z,8.50
2022-10-13T17:49:56.094Z,9.13
2022-10-13T17:52:28.775Z,11.43
2022-10-13T17:54:58.617Z,11.23
2022-10-13T17:57:28.334Z,10.00
2022-10-13T17:59:58.089Z,11.50
2022-10-13T18:02:27.698Z,10.05
2022-10-13T18:04:57.359Z,9.90
2022-10-13T18:07:29.532Z,10.23
2022-10-13T18:09:59.089Z,8.80
2022-10-13T18:12:28.684Z,9.10
2022-10-13T18:14:58.220Z,10.10
2022-10-13T18:17:28.030Z,9.82
2022-10-13T18:19:58.741Z,12.20
2022-10-13T18:22:31.049Z,17.45
2022-10-13T18:25:00.601Z,15.45
2022-10-13T18:27:30.384Z,14.75
2022-10-13T18:29:59.998Z,14.80
2022-10-13T18:32:29.542Z,19.98
2022-10-13T18:34:59.119Z,16.42
2022-10-13T18:37:31.283Z,15.95
2022-10-13T18:40:00.899Z,13.27
2022-10-13T18:42:30.444Z,14.43
2022-10-13T18:45:00.029Z,14.88
2022-10-13T18:47:29.620Z,12.45
2022-10-13T18:49:59.749Z,14.23
2022-10-13T18:52:32.084Z,13.90
2022-10-13T18:55:01.757Z,19.38
2022-10-13T18:57:31.314Z,11.45
2022-10-13T19:00:01.041Z,12.52
2022-10-13T19:02:30.655Z,11.48
2022-10-13T19:05:00.214Z,13.77
2022-10-13T19:07:35.708Z,13.98
2022-10-13T19:10:09.814Z,14.75
2022-10-13T19:12:39.458Z,13.00
2022-10-13T19:15:10.299Z,18.92
2022-10-13T19:17:39.911Z,21.17
2022-10-13T19:20:10.674Z,15.35
2022-10-13T19:22:43.010Z,20.52
2022-10-13T19:25:12.861Z,19.27
2022-10-13T19:27:42.524Z,18.60
2022-10-13T19:30:14.093Z,23.90
2022-10-13T19:32:44.424Z,21.77
2022-10-13T19:35:14.646Z,20.15
2022-10-13T19:37:46.906Z,18.75
2022-10-13T19:40:16.530Z,20.13
2022-10-13T19:42:46.190Z,20.52
2022-10-13T19:45:16.330Z,18.25
2022-10-13T19:47:45.895Z,17.70
2022-10-13T19:50:15.796Z,27.90
2022-10-13T19:52:48.659Z,25.08
2022-10-13T19:55:18.496Z,27.70
2022-10-13T19:57:48.470Z,30.80
2022-10-13T20:00:19.464Z,29.55
2022-10-13T20:02:49.084Z,34.88
2022-10-13T20:05:24.672Z,29.02
2022-10-13T20:07:58.116Z,30.75
2022-10-13T20:10:27.922Z,34.97
2022-10-13T20:12:57.519Z,31.20
2022-10-13T20:15:27.098Z,32.55
2022-10-13T20:17:56.691Z,43.58
2022-10-13T20:20:26.304Z,27.30
2022-10-13T20:22:58.616Z,29.63
2022-10-13T20:25:28.230Z,24.98
2022-10-13T20:27:57.904Z,21.92
2022-10-13T20:30:27.458Z,27.98
2022-10-13T20:32:58.794Z,29.13
2022-10-13T20:35:28.677Z,27.88
2022-10-13T20:38:00.789Z,29.60
2022-10-13T20:40:30.385Z,33.50
2022-10-13T20:42:59.922Z,36.20
2022-10-13T20:45:29.488Z,28.23
2022-10-13T20:47:59.141Z,29.75
2022-10-13T20:50:28.649Z,27.33
2022-10-13T20:53:00.849Z,22.98
2022-10-13T20:55:31.321Z,24.35
2022-10-13T20:58:00.854Z,20.33
2022-10-13T21:00:30.605Z,23.92
2022-10-13T21:03:02.215Z,20.60
2022-10-13T21:05:32.007Z,23.40
2022-10-13T21:08:04.276Z,21.10
2022-10-13T21:10:33.794Z,24.88
2022-10-13T21:13:03.385Z,24.25
2022-10-13T21:15:33.128Z,21.60
2022-10-13T21:18:02.699Z,23.60
2022-10-13T21:20:32.608Z,28.38
2022-10-13T21:23:05.736Z,27.50
2022-10-13T21:25:38.086Z,30.33
2022-10-13T21:28:08.206Z,35.95
2022-10-13T21:30:37.798Z,25.33
2022-10-13T21:33:07.520Z,31.42
2022-10-13T21:35:38.329Z,30.08
2022-10-13T21:38:10.569Z,29.23
2022-10-13T21:40:40.856Z,30.95
2022-10-13T21:43:10.604Z,35.20
2022-10-13T21:45:40.267Z,28.23
2022-10-13T21:48:09.986Z,27.98
2022-10-13T21:50:39.610Z,26.38
2022-10-13T21:53:11.836Z,27.67
2022-10-13T21:55:41.474Z,31.08
2022-10-13T21:58:11.013Z,32.72
2022-10-13T22:00:40.801Z,36.20
2022-10-13T22:03:10.408Z,34.15
2022-10-13T22:05:40.002Z,34.25
2022-10-13T22:08:12.354Z,30.85
2022-10-13T22:10:41.896Z,30.02
2022-10-13T22:13:11.470Z,32.47
2022-10-13T22:15:41.015Z,29.95
2022-10-13T22:18:11.116Z,33.90
2022-10-13T22:20:40.695Z,30.52
2022-10-13T22:23:12.928Z,27.48
2022-10-13T22:25:46.764Z,24.77
2022-10-13T22:28:16.348Z,24.65
2022-10-13T22:30:45.959Z,21.75
2022-10-13T22:33:15.809Z,28.05
2022-10-13T22:35:46.879Z,23.70
2022-10-13T22:38:19.023Z,20.95
2022-10-13T22:40:49.413Z,22.52
2022-10-13T22:43:18.981Z,23.77
2022-10-13T22:45:53.500Z,23.35
2022-10-13T22:48:23.331Z,23.42
2022-10-13T22:50:52.938Z,30.63
2022-10-13T22:53:25.177Z,31.15
2022-10-13T22:55:54.745Z,25.42
2022-10-13T22:58:24.409Z,28.73
2022-10-13T23:00:54.005Z,31.65
2022-10-13T23:03:23.646Z,27.75
2022-10-13T23:05:53.375Z,33.00
2022-10-13T23:08:25.623Z,27.38
2022-10-13T23:10:55.151Z,32.38
2022-10-13T23:13:24.759Z,30.25
2022-10-13T23:15:54.440Z,30.63
2022-10-13T23:18:24.037Z,31.70
2022-10-13T23:20:56.845Z,36.22
2022-10-13T23:23:29.339Z,29.80
2022-10-13T23:25:58.931Z,36.42
2022-10-13T23:28:28.567Z,38.40
2022-10-13T23:31:01.235Z,36.28
2022-10-13T23:33:31.204Z,33.47
2022-10-13T23:36:02.196Z,37.92
2022-10-13T23:38:35.650Z,36.78
2022-10-13T23:41:08.243Z,40.97
2022-10-13T23:43:38.224Z,44.08
2022-10-13T23:46:10.668Z,43.08
2022-10-13T23:48:40.730Z,40.40
2022-10-13T23:51:12.340Z,46.15
2022-10-13T23:53:45.840Z,37.53
2022-10-13T23:56:16.654Z,43.78
2022-10-13T23:58:46.997Z,42.40
